sensor_id;sensor_type;location;lat;lon;timestamp;temperature;humidity
66271;DHT22;53063;39.614;8.814;2023-02-15T00:01:54;7.20;99.90
66271;DHT22;53063;39.614;8.814;2023-02-15T00:04:23;7.20;99.90
66271;DHT22;53063;39.614;8.814;2023-02-15T00:06:49;7.30;99.90
66271;DHT22;53063;39.614;8.814;2023-02-15T00:09:16;7.10;99.90
66271;DHT22;53063;39.614;8.814;2023-02-15T00:11:42;6.90;99.90
66271;DHT22;53063;39.614;8.814;2023-02-15T00:14:12;7.10;99.90
66271;DHT22;53063;39.614;8.814;2023-02-15T00:16:39;7.10;99.90
66271;DHT22;53063;39.614;8.814;2023-02-15T00:19:06;7.00;99.90
66271;DHT22;53063;39.614;8.814;2023-02-15T00:21:33;7.00;99.90
66271;DHT22;53063;39.614;8.814;2023-02-15T00:24:00;7.10;99.90
66271;DHT22;53063;39.614;8.814;2023-02-15T00:26:27;7.00;99.90
66271;DHT22;53063;39.614;8.814;2023-02-15T00:28:53;7.20;99.90
66271;DHT22;53063;39.614;8.814;2023-02-15T00:31:20;7.20;99.90
66271;DHT22;53063;39.614;8.814;2023-02-15T00:33:46;7.20;99.90
66271;DHT22;53063;39.614;8.814;2023-02-15T00:36:13;7.20;99.90
66271;DHT22;53063;39.614;8.814;2023-02-15T00:38:39;7.20;99.90
66271;DHT22;53063;39.614;8.814;2023-02-15T00:41:06;6.80;99.90
66271;DHT22;53063;39.614;8.814;2023-02-15T00:43:34;6.70;99.90
66271;DHT22;53063;39.614;8.814;2023-02-15T00:46:02;6.70;99.90
66271;DHT22;53063;39.614;8.814;2023-02-15T00:48:28;6.70;99.90
66271;DHT22;53063;39.614;8.814;2023-02-15T00:50:56;6.40;99.90
66271;DHT22;53063;39.614;8.814;2023-02-15T00:53:23;6.40;99.90
66271;DHT22;53063;39.614;8.814;2023-02-15T00:55:49;6.60;99.90
66271;DHT22;53063;39.614;8.814;2023-02-15T00:58:16;6.50;99.90
66271;DHT22;53063;39.614;8.814;2023-02-15T01:00:46;6.20;99.90
66271;DHT22;53063;39.614;8.814;2023-02-15T01:03:14;6.30;99.90
66271;DHT22;53063;39.614;8.814;2023-02-15T01:05:41;6.10;99.90
66271;DHT22;53063;39.614;8.814;2023-02-15T01:08:07;6.20;99.90
66271;DHT22;53063;39.614;8.814;2023-02-15T01:10:34;6.20;99.90
66271;DHT22;53063;39.614;8.814;2023-02-15T01:13:00;6.10;99.90
66271;DHT22;53063;39.614;8.814;2023-02-15T01:15:26;6.20;99.90
66271;DHT22;53063;39.614;8.814;2023-02-15T01:17:53;6.10;99.90
66271;DHT22;53063;39.614;8.814;2023-02-15T01:20:25;6.10;99.90
66271;DHT22;53063;39.614;8.814;2023-02-15T01:22:52;6.20;99.90
66271;DHT22;53063;39.614;8.814;2023-02-15T01:25:20;6.10;99.90
66271;DHT22;53063;39.614;8.814;2023-02-15T01:27:48;6.00;99.90
66271;DHT22;53063;39.614;8.814;2023-02-15T01:30:14;5.90;99.90
66271;DHT22;53063;39.614;8.814;2023-02-15T01:32:42;5.70;99.90
66271;DHT22;53063;39.614;8.814;2023-02-15T01:35:08;5.70;99.90
66271;DHT22;53063;39.614;8.814;2023-02-15T01:37:35;5.90;99.90
66271;DHT22;53063;39.614;8.814;2023-02-15T01:40:02;6.00;99.90
66271;DHT22;53063;39.614;8.814;2023-02-15T01:42:29;6.00;99.90
66271;DHT22;53063;39.614;8.814;2023-02-15T01:45:01;6.00;99.90
66271;DHT22;53063;39.614;8.814;2023-02-15T01:47:41;6.00;99.90
66271;DHT22;53063;39.614;8.814;2023-02-15T01:50:25;6.10;99.90
66271;DHT22;53063;39.614;8.814;2023-02-15T01:52:58;6.00;99.90
66271;DHT22;53063;39.614;8.814;2023-02-15T01:55:28;6.00;99.90
66271;DHT22;53063;39.614;8.814;2023-02-15T01:57:56;5.90;99.90
66271;DHT22;53063;39.614;8.814;2023-02-15T02:00:22;6.10;99.90
66271;DHT22;53063;39.614;8.814;2023-02-15T02:02:52;6.20;99.90
66271;DHT22;53063;39.614;8.814;2023-02-15T02:05:21;6.30;99.90
66271;DHT22;53063;39.614;8.814;2023-02-15T02:07:50;6.40;99.90
66271;DHT22;53063;39.614;8.814;2023-02-15T02:10:21;6.40;99.90
66271;DHT22;53063;39.614;8.814;2023-02-15T02:12:52;6.40;99.90
66271;DHT22;53063;39.614;8.814;2023-02-15T02:15:23;6.50;99.90
66271;DHT22;53063;39.614;8.814;2023-02-15T02:34:15;6.40;99.90
66271;DHT22;53063;39.614;8.814;2023-02-15T02:37:08;6.40;99.90
66271;DHT22;53063;39.614;8.814;2023-02-15T02:39:55;6.30;99.90
66271;DHT22;53063;39.614;8.814;2023-02-15T02:44:54;5.50;99.90
66271;DHT22;53063;39.614;8.814;2023-02-15T02:50:07;5.50;99.90
66271;DHT22;53063;39.614;8.814;2023-02-15T02:52:50;5.40;99.90
66271;DHT22;53063;39.614;8.814;2023-02-15T03:00:23;5.70;99.90
66271;DHT22;53063;39.614;8.814;2023-02-15T03:02:53;5.80;99.90
66271;DHT22;53063;39.614;8.814;2023-02-15T03:05:24;5.90;99.90
66271;DHT22;53063;39.614;8.814;2023-02-15T03:07:52;5.80;99.90
66271;DHT22;53063;39.614;8.814;2023-02-15T03:10:21;5.70;99.90
66271;DHT22;53063;39.614;8.814;2023-02-15T03:12:50;5.80;99.90
66271;DHT22;53063;39.614;8.814;2023-02-15T03:15:24;5.90;99.90
66271;DHT22;53063;39.614;8.814;2023-02-15T03:17:58;5.70;99.90
66271;DHT22;53063;39.614;8.814;2023-02-15T03:20:31;5.60;99.90
66271;DHT22;53063;39.614;8.814;2023-02-15T03:23:16;5.40;99.90
66271;DHT22;53063;39.614;8.814;2023-02-15T03:25:44;5.20;99.90
66271;DHT22;53063;39.614;8.814;2023-02-15T03:28:17;5.10;99.90
66271;DHT22;53063;39.614;8.814;2023-02-15T03:30:48;5.00;99.90
66271;DHT22;53063;39.614;8.814;2023-02-15T03:33:17;5.00;99.90
66271;DHT22;53063;39.614;8.814;2023-02-15T03:38:12;5.60;99.90
66271;DHT22;53063;39.614;8.814;2023-02-15T03:40:44;5.80;99.90
66271;DHT22;53063;39.614;8.814;2023-02-15T03:48:45;5.90;99.90
66271;DHT22;53063;39.614;8.814;2023-02-15T03:51:17;5.80;99.90
66271;DHT22;53063;39.614;8.814;2023-02-15T03:54:10;5.70;99.90
66271;DHT22;53063;39.614;8.814;2023-02-15T03:56:41;5.50;99.90
66271;DHT22;53063;39.614;8.814;2023-02-15T03:59:07;5.50;99.90
66271;DHT22;53063;39.614;8.814;2023-02-15T04:01:58;5.50;99.90
66271;DHT22;53063;39.614;8.814;2023-02-15T04:04:37;5.50;99.90
66271;DHT22;53063;39.614;8.814;2023-02-15T04:07:06;5.70;99.90
66271;DHT22;53063;39.614;8.814;2023-02-15T04:09:32;5.50;99.90
66271;DHT22;53063;39.614;8.814;2023-02-15T04:12:17;5.50;99.90
66271;DHT22;53063;39.614;8.814;2023-02-15T04:14:43;5.50;99.90
66271;DHT22;53063;39.614;8.814;2023-02-15T04:17:27;5.60;99.90
66271;DHT22;53063;39.614;8.814;2023-02-15T04:19:53;5.60;99.90
66271;DHT22;53063;39.614;8.814;2023-02-15T04:22:38;5.50;99.90
66271;DHT22;53063;39.614;8.814;2023-02-15T04:25:22;5.40;99.90
66271;DHT22;53063;39.614;8.814;2023-02-15T04:27:50;5.30;99.90
66271;DHT22;53063;39.614;8.814;2023-02-15T04:30:19;5.00;99.90
66271;DHT22;53063;39.614;8.814;2023-02-15T04:32:46;4.80;99.90
66271;DHT22;53063;39.614;8.814;2023-02-15T04:35:12;5.00;99.90
66271;DHT22;53063;39.614;8.814;2023-02-15T04:37:39;5.10;99.90
66271;DHT22;53063;39.614;8.814;2023-02-15T04:40:06;5.10;99.90
66271;DHT22;53063;39.614;8.814;2023-02-15T04:42:32;5.00;99.90
66271;DHT22;53063;39.614;8.814;2023-02-15T04:44:58;5.00;99.90
66271;DHT22;53063;39.614;8.814;2023-02-15T04:47:24;5.00;99.90
66271;DHT22;53063;39.614;8.814;2023-02-15T04:49:50;5.00;99.90
66271;DHT22;53063;39.614;8.814;2023-02-15T04:52:16;4.90;99.90
66271;DHT22;53063;39.614;8.814;2023-02-15T04:54:45;4.90;99.90
66271;DHT22;53063;39.614;8.814;2023-02-15T04:57:11;4.80;99.90
66271;DHT22;53063;39.614;8.814;2023-02-15T04:59:37;4.80;99.90
66271;DHT22;53063;39.614;8.814;2023-02-15T05:02:03;4.80;99.90
66271;DHT22;53063;39.614;8.814;2023-02-15T05:04:29;4.80;99.90
66271;DHT22;53063;39.614;8.814;2023-02-15T05:06:55;5.00;99.90
66271;DHT22;53063;39.614;8.814;2023-02-15T05:09:21;5.20;99.90
66271;DHT22;53063;39.614;8.814;2023-02-15T05:11:47;5.10;99.90
66271;DHT22;53063;39.614;8.814;2023-02-15T05:14:13;5.10;99.90
66271;DHT22;53063;39.614;8.814;2023-02-15T05:16:39;5.00;99.90
66271;DHT22;53063;39.614;8.814;2023-02-15T05:19:05;4.90;99.90
66271;DHT22;53063;39.614;8.814;2023-02-15T05:21:32;5.00;99.90
66271;DHT22;53063;39.614;8.814;2023-02-15T05:23:58;5.10;99.90
66271;DHT22;53063;39.614;8.814;2023-02-15T05:26:25;4.90;99.90
66271;DHT22;53063;39.614;8.814;2023-02-15T05:29:10;4.70;99.90
66271;DHT22;53063;39.614;8.814;2023-02-15T05:31:36;4.40;99.90
66271;DHT22;53063;39.614;8.814;2023-02-15T05:34:03;4.40;99.90
66271;DHT22;53063;39.614;8.814;2023-02-15T05:36:29;4.50;99.90
66271;DHT22;53063;39.614;8.814;2023-02-15T05:38:55;4.70;99.90
66271;DHT22;53063;39.614;8.814;2023-02-15T05:41:21;5.00;99.90
66271;DHT22;53063;39.614;8.814;2023-02-15T05:43:48;4.80;99.90
66271;DHT22;53063;39.614;8.814;2023-02-15T05:46:14;4.70;99.90
66271;DHT22;53063;39.614;8.814;2023-02-15T05:48:39;4.60;99.90
66271;DHT22;53063;39.614;8.814;2023-02-15T05:51:08;4.50;99.90
66271;DHT22;53063;39.614;8.814;2023-02-15T05:53:36;4.50;99.90
66271;DHT22;53063;39.614;8.814;2023-02-15T05:56:03;4.40;99.90
66271;DHT22;53063;39.614;8.814;2023-02-15T05:58:32;4.30;99.90
66271;DHT22;53063;39.614;8.814;2023-02-15T06:00:58;4.30;99.90
66271;DHT22;53063;39.614;8.814;2023-02-15T06:03:25;4.60;99.90
66271;DHT22;53063;39.614;8.814;2023-02-15T06:05:52;4.50;99.90
66271;DHT22;53063;39.614;8.814;2023-02-15T06:08:18;4.60;99.90
66271;DHT22;53063;39.614;8.814;2023-02-15T06:10:47;4.30;99.90
66271;DHT22;53063;39.614;8.814;2023-02-15T06:13:13;4.00;99.90
66271;DHT22;53063;39.614;8.814;2023-02-15T06:15:39;3.80;99.90
66271;DHT22;53063;39.614;8.814;2023-02-15T06:18:05;3.70;99.90
66271;DHT22;53063;39.614;8.814;2023-02-15T06:20:31;3.50;99.90
66271;DHT22;53063;39.614;8.814;2023-02-15T06:22:57;3.70;99.90
66271;DHT22;53063;39.614;8.814;2023-02-15T06:25:23;3.80;99.90
66271;DHT22;53063;39.614;8.814;2023-02-15T06:27:50;3.90;99.90
66271;DHT22;53063;39.614;8.814;2023-02-15T06:30:16;3.90;99.90
66271;DHT22;53063;39.614;8.814;2023-02-15T06:32:42;4.00;99.90
66271;DHT22;53063;39.614;8.814;2023-02-15T06:35:08;3.90;99.90
66271;DHT22;53063;39.614;8.814;2023-02-15T06:37:36;4.00;99.90
66271;DHT22;53063;39.614;8.814;2023-02-15T06:40:02;4.30;99.90
66271;DHT22;53063;39.614;8.814;2023-02-15T06:42:30;4.70;99.90
66271;DHT22;53063;39.614;8.814;2023-02-15T06:44:56;4.90;99.90
66271;DHT22;53063;39.614;8.814;2023-02-15T06:47:22;5.00;99.90
66271;DHT22;53063;39.614;8.814;2023-02-15T06:49:48;5.10;99.90
66271;DHT22;53063;39.614;8.814;2023-02-15T06:52:13;5.50;99.90
66271;DHT22;53063;39.614;8.814;2023-02-15T06:54:39;5.70;99.90
66271;DHT22;53063;39.614;8.814;2023-02-15T06:57:05;5.60;99.90
66271;DHT22;53063;39.614;8.814;2023-02-15T06:59:31;5.50;99.90
66271;DHT22;53063;39.614;8.814;2023-02-15T07:01:57;5.60;99.90
66271;DHT22;53063;39.614;8.814;2023-02-15T07:04:23;5.70;99.90
66271;DHT22;53063;39.614;8.814;2023-02-15T07:06:49;5.40;99.90
66271;DHT22;53063;39.614;8.814;2023-02-15T07:09:15;5.40;99.90
66271;DHT22;53063;39.614;8.814;2023-02-15T07:11:40;5.80;99.90
66271;DHT22;53063;39.614;8.814;2023-02-15T07:14:25;6.50;99.90
66271;DHT22;53063;39.614;8.814;2023-02-15T07:16:51;7.30;99.90
66271;DHT22;53063;39.614;8.814;2023-02-15T07:19:17;7.80;99.90
66271;DHT22;53063;39.614;8.814;2023-02-15T07:21:43;8.30;99.90
66271;DHT22;53063;39.614;8.814;2023-02-15T07:24:11;8.50;99.90
66271;DHT22;53063;39.614;8.814;2023-02-15T07:26:37;9.10;99.90
66271;DHT22;53063;39.614;8.814;2023-02-15T07:29:03;10.10;99.90
66271;DHT22;53063;39.614;8.814;2023-02-15T07:31:29;10.70;94.50
66271;DHT22;53063;39.614;8.814;2023-02-15T07:33:55;11.40;90.10
66271;DHT22;53063;39.614;8.814;2023-02-15T07:36:21;11.90;85.90
66271;DHT22;53063;39.614;8.814;2023-02-15T07:38:46;12.40;83.60
66271;DHT22;53063;39.614;8.814;2023-02-15T07:41:14;13.00;83.60
66271;DHT22;53063;39.614;8.814;2023-02-15T07:43:42;14.20;80.50
66271;DHT22;53063;39.614;8.814;2023-02-15T07:46:11;15.00;74.20
66271;DHT22;53063;39.614;8.814;2023-02-15T07:48:37;15.00;73.50
66271;DHT22;53063;39.614;8.814;2023-02-15T07:51:06;16.50;69.80
66271;DHT22;53063;39.614;8.814;2023-02-15T07:53:33;16.90;65.00
66271;DHT22;53063;39.614;8.814;2023-02-15T07:56:00;16.90;62.20
66271;DHT22;53063;39.614;8.814;2023-02-15T07:58:26;15.70;66.10
66271;DHT22;53063;39.614;8.814;2023-02-15T08:01:12;15.80;66.60
66271;DHT22;53063;39.614;8.814;2023-02-15T08:03:39;16.30;63.60
66271;DHT22;53063;39.614;8.814;2023-02-15T08:06:05;15.70;66.40
66271;DHT22;53063;39.614;8.814;2023-02-15T08:08:33;15.80;69.00
66271;DHT22;53063;39.614;8.814;2023-02-15T08:11:07;16.10;67.70
66271;DHT22;53063;39.614;8.814;2023-02-15T08:13:55;18.00;62.50
66271;DHT22;53063;39.614;8.814;2023-02-15T08:19:06;18.40;58.20
66271;DHT22;53063;39.614;8.814;2023-02-15T08:21:33;18.40;58.70
66271;DHT22;53063;39.614;8.814;2023-02-15T08:24:00;18.70;58.40
66271;DHT22;53063;39.614;8.814;2023-02-15T08:26:27;19.20;55.30
66271;DHT22;53063;39.614;8.814;2023-02-15T08:28:53;19.20;55.00
66271;DHT22;53063;39.614;8.814;2023-02-15T08:31:20;19.10;55.30
66271;DHT22;53063;39.614;8.814;2023-02-15T08:33:47;19.50;54.90
66271;DHT22;53063;39.614;8.814;2023-02-15T08:36:19;19.70;53.70
66271;DHT22;53063;39.614;8.814;2023-02-15T08:38:45;19.20;54.50
66271;DHT22;53063;39.614;8.814;2023-02-15T08:41:17;19.00;55.20
66271;DHT22;53063;39.614;8.814;2023-02-15T08:43:46;21.40;51.70
66271;DHT22;53063;39.614;8.814;2023-02-15T08:46:13;20.10;52.80
66271;DHT22;53063;39.614;8.814;2023-02-15T08:48:40;19.50;54.80
66271;DHT22;53063;39.614;8.814;2023-02-15T08:51:14;19.50;56.10
66271;DHT22;53063;39.614;8.814;2023-02-15T08:53:42;20.30;53.00
66271;DHT22;53063;39.614;8.814;2023-02-15T08:56:08;20.70;53.80
66271;DHT22;53063;39.614;8.814;2023-02-15T08:58:35;21.20;51.40
66271;DHT22;53063;39.614;8.814;2023-02-15T09:01:11;21.70;49.50
66271;DHT22;53063;39.614;8.814;2023-02-15T09:03:38;22.10;50.30
66271;DHT22;53063;39.614;8.814;2023-02-15T09:06:05;22.10;49.50
66271;DHT22;53063;39.614;8.814;2023-02-15T09:08:31;22.00;48.20
66271;DHT22;53063;39.614;8.814;2023-02-15T09:11:10;22.20;51.10
66271;DHT22;53063;39.614;8.814;2023-02-15T09:13:37;24.10;46.10
66271;DHT22;53063;39.614;8.814;2023-02-15T09:16:06;24.00;44.70
66271;DHT22;53063;39.614;8.814;2023-02-15T09:18:34;24.00;44.90
66271;DHT22;53063;39.614;8.814;2023-02-15T09:21:11;25.70;42.50
66271;DHT22;53063;39.614;8.814;2023-02-15T09:23:40;25.20;41.20
66271;DHT22;53063;39.614;8.814;2023-02-15T09:26:12;23.80;44.20
66271;DHT22;53063;39.614;8.814;2023-02-15T09:28:38;22.70;44.80
66271;DHT22;53063;39.614;8.814;2023-02-15T09:31:16;24.50;43.60
66271;DHT22;53063;39.614;8.814;2023-02-15T09:33:43;24.10;43.10
66271;DHT22;53063;39.614;8.814;2023-02-15T09:38:48;23.20;44.60
66271;DHT22;53063;39.614;8.814;2023-02-15T09:41:36;21.90;46.90
66271;DHT22;53063;39.614;8.814;2023-02-15T10:13:26;26.90;37.20
66271;DHT22;53063;39.614;8.814;2023-02-15T10:27:12;17.70;55.60
66271;DHT22;53063;39.614;8.814;2023-02-15T10:29:55;17.30;58.30
66271;DHT22;53063;39.614;8.814;2023-02-15T10:32:27;17.50;59.00
66271;DHT22;53063;39.614;8.814;2023-02-15T10:35:22;18.50;57.40
66271;DHT22;53063;39.614;8.814;2023-02-15T10:37:53;18.70;55.90
66271;DHT22;53063;39.614;8.814;2023-02-15T10:43:41;19.10;55.00
66271;DHT22;53063;39.614;8.814;2023-02-15T10:50:59;19.10;55.20
66271;DHT22;53063;39.614;8.814;2023-02-15T11:07:43;19.00;50.40
66271;DHT22;53063;39.614;8.814;2023-02-15T11:13:25;18.40;51.50
66271;DHT22;53063;39.614;8.814;2023-02-15T11:16:06;19.40;49.20
66271;DHT22;53063;39.614;8.814;2023-02-15T11:18:50;20.00;48.40
66271;DHT22;53063;39.614;8.814;2023-02-15T11:21:27;18.40;51.20
66271;DHT22;53063;39.614;8.814;2023-02-15T11:23:54;18.50;51.00
66271;DHT22;53063;39.614;8.814;2023-02-15T11:26:28;18.30;51.60
66271;DHT22;53063;39.614;8.814;2023-02-15T11:29:10;18.90;50.90
66271;DHT22;53063;39.614;8.814;2023-02-15T11:31:44;18.50;50.90
66271;DHT22;53063;39.614;8.814;2023-02-15T11:34:29;19.40;51.10
66271;DHT22;53063;39.614;8.814;2023-02-15T11:37:00;19.80;50.70
66271;DHT22;53063;39.614;8.814;2023-02-15T11:39:28;19.70;49.10
66271;DHT22;53063;39.614;8.814;2023-02-15T11:42:01;19.20;50.30
66271;DHT22;53063;39.614;8.814;2023-02-15T11:44:42;18.80;49.20
66271;DHT22;53063;39.614;8.814;2023-02-15T11:47:10;19.10;49.10
66271;DHT22;53063;39.614;8.814;2023-02-15T11:49:37;19.20;49.50
66271;DHT22;53063;39.614;8.814;2023-02-15T11:52:10;19.20;47.60
66271;DHT22;53063;39.614;8.814;2023-02-15T11:54:41;19.00;47.60
66271;DHT22;53063;39.614;8.814;2023-02-15T11:57:15;19.10;46.20
66271;DHT22;53063;39.614;8.814;2023-02-15T11:59:50;18.60;47.80
66271;DHT22;53063;39.614;8.814;2023-02-15T12:02:22;18.80;49.60
66271;DHT22;53063;39.614;8.814;2023-02-15T12:05:01;18.70;46.70
66271;DHT22;53063;39.614;8.814;2023-02-15T12:07:42;18.90;45.10
66271;DHT22;53063;39.614;8.814;2023-02-15T12:10:31;18.50;45.70
66271;DHT22;53063;39.614;8.814;2023-02-15T12:13:12;18.20;46.60
66271;DHT22;53063;39.614;8.814;2023-02-15T12:15:42;19.10;45.70
66271;DHT22;53063;39.614;8.814;2023-02-15T12:18:37;20.00;43.20
66271;DHT22;53063;39.614;8.814;2023-02-15T12:21:15;19.60;44.40
66271;DHT22;53063;39.614;8.814;2023-02-15T12:23:55;18.90;45.50
66271;DHT22;53063;39.614;8.814;2023-02-15T12:26:28;18.90;43.20
66271;DHT22;53063;39.614;8.814;2023-02-15T12:28:55;18.70;43.90
66271;DHT22;53063;39.614;8.814;2023-02-15T12:31:36;18.90;42.90
66271;DHT22;53063;39.614;8.814;2023-02-15T12:34:12;18.50;44.20
66271;DHT22;53063;39.614;8.814;2023-02-15T12:36:47;19.30;43.70
66271;DHT22;53063;39.614;8.814;2023-02-15T12:39:22;18.90;42.80
66271;DHT22;53063;39.614;8.814;2023-02-15T12:44:32;19.00;43.00
66271;DHT22;53063;39.614;8.814;2023-02-15T12:49:42;19.60;42.10
66271;DHT22;53063;39.614;8.814;2023-02-15T12:54:45;18.90;43.70
66271;DHT22;53063;39.614;8.814;2023-02-15T12:57:24;18.80;43.60
66271;DHT22;53063;39.614;8.814;2023-02-15T13:02:55;19.00;44.50
66271;DHT22;53063;39.614;8.814;2023-02-15T13:05:39;19.10;43.30
66271;DHT22;53063;39.614;8.814;2023-02-15T13:08:10;18.80;44.00
66271;DHT22;53063;39.614;8.814;2023-02-15T13:10:54;18.80;44.50
66271;DHT22;53063;39.614;8.814;2023-02-15T13:13:27;19.00;43.40
66271;DHT22;53063;39.614;8.814;2023-02-15T13:16:07;19.10;44.80
66271;DHT22;53063;39.614;8.814;2023-02-15T13:18:38;19.20;42.40
66271;DHT22;53063;39.614;8.814;2023-02-15T13:21:11;18.70;43.30
66271;DHT22;53063;39.614;8.814;2023-02-15T13:23:38;18.80;43.80
66271;DHT22;53063;39.614;8.814;2023-02-15T13:26:10;18.70;43.30
66271;DHT22;53063;39.614;8.814;2023-02-15T13:28:57;18.80;43.00
66271;DHT22;53063;39.614;8.814;2023-02-15T13:31:27;18.80;43.30
66271;DHT22;53063;39.614;8.814;2023-02-15T13:33:58;18.90;44.30
66271;DHT22;53063;39.614;8.814;2023-02-15T13:39:43;18.90;43.80
66271;DHT22;53063;39.614;8.814;2023-02-15T13:42:27;19.30;43.10
66271;DHT22;53063;39.614;8.814;2023-02-15T13:47:53;19.10;43.50
66271;DHT22;53063;39.614;8.814;2023-02-15T13:56:02;18.90;42.80
66271;DHT22;53063;39.614;8.814;2023-02-15T14:01:34;18.50;44.00
66271;DHT22;53063;39.614;8.814;2023-02-15T14:16:33;19.30;44.30
66271;DHT22;53063;39.614;8.814;2023-02-15T14:24:49;18.40;49.40
66271;DHT22;53063;39.614;8.814;2023-02-15T14:30:19;18.70;48.70
66271;DHT22;53063;39.614;8.814;2023-02-15T14:33:34;19.10;49.20
66271;DHT22;53063;39.614;8.814;2023-02-15T14:35:34;19.10;49.00
66271;DHT22;53063;39.614;8.814;2023-02-15T14:38:26;19.10;48.40
66271;DHT22;53063;39.614;8.814;2023-02-15T14:43:55;18.60;50.20
66271;DHT22;53063;39.614;8.814;2023-02-15T14:49:43;18.60;51.20
66271;DHT22;53063;39.614;8.814;2023-02-15T14:52:11;18.70;50.40
66271;DHT22;53063;39.614;8.814;2023-02-15T14:59:52;18.20;55.10
66271;DHT22;53063;39.614;8.814;2023-02-15T15:02:47;17.90;57.20
66271;DHT22;53063;39.614;8.814;2023-02-15T15:05:33;17.90;57.30
66271;DHT22;53063;39.614;8.814;2023-02-15T15:08:03;17.50;57.50
66271;DHT22;53063;39.614;8.814;2023-02-15T15:10:44;17.50;57.90
66271;DHT22;53063;39.614;8.814;2023-02-15T15:18:49;17.10;59.20
66271;DHT22;53063;39.614;8.814;2023-02-15T15:36:11;16.40;61.80
66271;DHT22;53063;39.614;8.814;2023-02-15T15:42:13;16.00;63.80
66271;DHT22;53063;39.614;8.814;2023-02-15T15:45:17;16.20;63.20
66271;DHT22;53063;39.614;8.814;2023-02-15T15:50:45;16.00;64.80
66271;DHT22;53063;39.614;8.814;2023-02-15T15:53:24;16.00;64.50
66271;DHT22;53063;39.614;8.814;2023-02-15T15:55:56;15.70;64.40
66271;DHT22;53063;39.614;8.814;2023-02-15T15:58:25;15.70;64.80
66271;DHT22;53063;39.614;8.814;2023-02-15T16:00:56;15.50;65.10
66271;DHT22;53063;39.614;8.814;2023-02-15T16:03:26;15.40;65.20
66271;DHT22;53063;39.614;8.814;2023-02-15T16:05:52;15.20;64.80
66271;DHT22;53063;39.614;8.814;2023-02-15T16:08:35;15.00;65.40
66271;DHT22;53063;39.614;8.814;2023-02-15T16:11:24;14.80;66.00
66271;DHT22;53063;39.614;8.814;2023-02-15T16:13:50;14.70;66.70
66271;DHT22;53063;39.614;8.814;2023-02-15T16:16:24;14.70;66.40
66271;DHT22;53063;39.614;8.814;2023-02-15T16:18:54;14.50;67.40
66271;DHT22;53063;39.614;8.814;2023-02-15T16:21:26;14.40;68.90
66271;DHT22;53063;39.614;8.814;2023-02-15T16:26:54;14.30;70.00
66271;DHT22;53063;39.614;8.814;2023-02-15T16:29:30;14.20;70.40
66271;DHT22;53063;39.614;8.814;2023-02-15T16:34:59;13.90;71.10
66271;DHT22;53063;39.614;8.814;2023-02-15T16:37:27;13.80;71.80
66271;DHT22;53063;39.614;8.814;2023-02-15T16:39:55;13.50;72.80
66271;DHT22;53063;39.614;8.814;2023-02-15T16:42:21;13.40;73.40
66271;DHT22;53063;39.614;8.814;2023-02-15T16:44:56;13.30;73.70
66271;DHT22;53063;39.614;8.814;2023-02-15T16:47:30;13.30;73.90
66271;DHT22;53063;39.614;8.814;2023-02-15T16:49:59;13.20;74.00
66271;DHT22;53063;39.614;8.814;2023-02-15T16:52:28;13.10;74.70
66271;DHT22;53063;39.614;8.814;2023-02-15T16:54:59;13.00;75.40
66271;DHT22;53063;39.614;8.814;2023-02-15T16:57:30;13.00;75.80
66271;DHT22;53063;39.614;8.814;2023-02-15T17:00:07;12.80;76.50
66271;DHT22;53063;39.614;8.814;2023-02-15T17:02:34;12.80;77.10
66271;DHT22;53063;39.614;8.814;2023-02-15T17:05:16;12.60;77.40
66271;DHT22;53063;39.614;8.814;2023-02-15T17:10:36;12.40;78.80
66271;DHT22;53063;39.614;8.814;2023-02-15T17:13:12;12.30;79.30
66271;DHT22;53063;39.614;8.814;2023-02-15T17:15:40;12.20;79.90
66271;DHT22;53063;39.614;8.814;2023-02-15T17:18:19;12.20;79.80
66271;DHT22;53063;39.614;8.814;2023-02-15T17:20:47;12.10;80.10
66271;DHT22;53063;39.614;8.814;2023-02-15T17:25:49;11.90;81.40
66271;DHT22;53063;39.614;8.814;2023-02-15T17:28:22;11.90;81.90
66271;DHT22;53063;39.614;8.814;2023-02-15T17:30:50;11.90;81.80
66271;DHT22;53063;39.614;8.814;2023-02-15T17:33:36;11.80;81.70
66271;DHT22;53063;39.614;8.814;2023-02-15T17:36:19;11.70;82.20
66271;DHT22;53063;39.614;8.814;2023-02-15T17:41:24;11.70;83.70
66271;DHT22;53063;39.614;8.814;2023-02-15T17:43:50;11.80;83.00
66271;DHT22;53063;39.614;8.814;2023-02-15T17:46:16;11.60;83.30
66271;DHT22;53063;39.614;8.814;2023-02-15T17:48:47;11.60;83.90
66271;DHT22;53063;39.614;8.814;2023-02-15T17:51:14;11.60;84.20
66271;DHT22;53063;39.614;8.814;2023-02-15T17:53:40;11.50;84.60
66271;DHT22;53063;39.614;8.814;2023-02-15T17:56:26;11.50;84.70
66271;DHT22;53063;39.614;8.814;2023-02-15T17:58:52;11.30;85.10
66271;DHT22;53063;39.614;8.814;2023-02-15T18:01:20;11.20;85.90
66271;DHT22;53063;39.614;8.814;2023-02-15T18:04:08;11.20;86.10
66271;DHT22;53063;39.614;8.814;2023-02-15T18:06:53;11.30;86.70
66271;DHT22;53063;39.614;8.814;2023-02-15T18:09:38;11.30;86.50
66271;DHT22;53063;39.614;8.814;2023-02-15T18:12:25;11.20;86.30
66271;DHT22;53063;39.614;8.814;2023-02-15T18:14:52;11.20;86.70
66271;DHT22;53063;39.614;8.814;2023-02-15T18:17:23;11.10;86.50
66271;DHT22;53063;39.614;8.814;2023-02-15T18:19:51;11.20;86.70
66271;DHT22;53063;39.614;8.814;2023-02-15T18:22:19;11.10;86.70
66271;DHT22;53063;39.614;8.814;2023-02-15T18:24:47;11.00;87.10
66271;DHT22;53063;39.614;8.814;2023-02-15T18:27:14;10.90;87.00
66271;DHT22;53063;39.614;8.814;2023-02-15T18:29:40;10.90;87.60
66271;DHT22;53063;39.614;8.814;2023-02-15T18:32:08;10.90;87.70
66271;DHT22;53063;39.614;8.814;2023-02-15T18:34:39;10.90;87.80
66271;DHT22;53063;39.614;8.814;2023-02-15T18:37:12;10.90;87.80
66271;DHT22;53063;39.614;8.814;2023-02-15T18:40:13;10.60;87.40
66271;DHT22;53063;39.614;8.814;2023-02-15T18:42:33;10.40;87.90
66271;DHT22;53063;39.614;8.814;2023-02-15T18:45:06;10.10;88.60
66271;DHT22;53063;39.614;8.814;2023-02-15T18:47:37;10.00;89.10
66271;DHT22;53063;39.614;8.814;2023-02-15T18:50:05;9.90;89.60
66271;DHT22;53063;39.614;8.814;2023-02-15T18:52:33;9.80;90.20
66271;DHT22;53063;39.614;8.814;2023-02-15T18:55:03;9.60;91.30
66271;DHT22;53063;39.614;8.814;2023-02-15T18:57:31;9.50;92.70
66271;DHT22;53063;39.614;8.814;2023-02-15T18:59:57;9.50;93.90
66271;DHT22;53063;39.614;8.814;2023-02-15T19:02:23;9.50;94.80
66271;DHT22;53063;39.614;8.814;2023-02-15T19:04:49;9.50;95.60
66271;DHT22;53063;39.614;8.814;2023-02-15T19:07:16;9.40;96.20
66271;DHT22;53063;39.614;8.814;2023-02-15T19:09:47;9.40;96.50
66271;DHT22;53063;39.614;8.814;2023-02-15T19:12:14;9.20;98.20
66271;DHT22;53063;39.614;8.814;2023-02-15T19:14:40;9.40;98.70
66271;DHT22;53063;39.614;8.814;2023-02-15T19:17:16;9.40;98.70
66271;DHT22;53063;39.614;8.814;2023-02-15T19:19:43;9.40;98.40
66271;DHT22;53063;39.614;8.814;2023-02-15T19:22:33;9.20;98.50
66271;DHT22;53063;39.614;8.814;2023-02-15T19:25:01;9.10;99.20
66271;DHT22;53063;39.614;8.814;2023-02-15T19:27:32;9.20;99.60